Airport View

Enter AWOS ICAO identifier for current METAR.

ex. KFNL

KOWP 191255Z AUTO 28005KT 10SM CLR 15/14 A2985 RMK AO2 T01490138

19 May 2019 13:19

Frequency: 118.325

Phone: 918-246-2635

Other Area AWOS: KRVS - KTUL - KOKM - KCUH

TAF KRVS 191120Z 1912/2012 25007KT P6SM SCT250 FM191400 30008KT P6SM FEW150 SCT250 FM200000 03004KT P6SM BKN250